createdAt,value
2018-12-26T00:02:06.841Z,6.20
2018-12-26T00:04:53.402Z,5.73
2018-12-26T00:07:39.756Z,7.23
2018-12-26T00:10:26.394Z,8.70
2018-12-26T00:13:13.296Z,5.50
2018-12-26T00:15:59.750Z,6.00
2018-12-26T00:18:46.210Z,8.00
2018-12-26T00:24:05.530Z,8.20
2018-12-26T00:26:52.008Z,7.07
2018-12-26T00:29:38.660Z,7.80
2018-12-26T00:32:25.237Z,5.30
2018-12-26T00:35:11.594Z,7.40
2018-12-26T00:37:38.283Z,7.17
2018-12-26T00:40:05.032Z,7.50
2018-12-26T00:42:52.134Z,6.27
2018-12-26T00:45:38.486Z,6.30
2018-12-26T00:48:25.230Z,8.80
2018-12-26T00:51:12.046Z,6.63
2018-12-26T00:53:38.751Z,7.40
2018-12-26T00:56:25.100Z,6.37
2018-12-26T00:59:11.520Z,9.07
2018-12-26T01:01:57.900Z,7.73
2018-12-26T01:04:44.343Z,6.63
2018-12-26T01:07:10.967Z,4.33
2018-12-26T01:09:57.446Z,5.73
2018-12-26T01:12:24.442Z,8.93
2018-12-26T01:14:51.180Z,7.17
2018-12-26T01:17:37.761Z,6.37
2018-12-26T01:20:04.978Z,5.67
2018-12-26T01:22:44.846Z,6.23
2018-12-26T01:25:31.219Z,7.07
2018-12-26T01:27:57.924Z,7.30
2018-12-26T01:30:24.562Z,6.87
2018-12-26T01:33:11.044Z,5.03
2018-12-26T01:35:57.438Z,8.90
2018-12-26T01:38:24.135Z,7.97
2018-12-26T01:41:10.495Z,9.77
2018-12-26T01:43:56.928Z,6.33
2018-12-26T01:46:43.283Z,6.33
2018-12-26T01:49:29.835Z,5.27
2018-12-26T01:52:16.197Z,7.20
2018-12-26T01:55:02.760Z,8.90
2018-12-26T01:57:49.112Z,5.70
2018-12-26T02:00:15.828Z,6.93
2018-12-26T02:02:42.457Z,6.63
2018-12-26T02:05:29.146Z,6.57
2018-12-26T02:08:15.513Z,9.10
2018-12-26T02:11:01.970Z,7.50
2018-12-26T02:13:48.452Z,8.00
2018-12-26T02:16:34.988Z,6.97
2018-12-26T02:19:21.461Z,10.10
2018-12-26T02:21:48.476Z,9.13
2018-12-26T02:24:28.367Z,13.17
2018-12-26T02:27:15.126Z,8.57
2018-12-26T02:30:01.500Z,7.90
2018-12-26T02:32:47.970Z,8.47
2018-12-26T02:35:34.619Z,8.63
2018-12-26T02:38:21.283Z,12.73
2018-12-26T02:40:47.910Z,9.17
2018-12-26T02:43:34.422Z,12.80
2018-12-26T02:46:20.780Z,12.23
2018-12-26T02:48:48.174Z,13.87
2018-12-26T02:51:34.536Z,12.43
2018-12-26T02:54:01.348Z,12.33
2018-12-26T02:56:49.164Z,13.47
2018-12-26T02:59:36.230Z,14.87
2018-12-26T03:02:22.588Z,15.63
2018-12-26T03:08:24.817Z,12.87
2018-12-26T03:11:11.305Z,12.90
2018-12-26T03:13:58.043Z,15.37
2018-12-26T03:16:44.382Z,17.67
2018-12-26T03:19:30.870Z,13.07
2018-12-26T03:22:17.226Z,15.10
2018-12-26T03:25:03.716Z,16.70
2018-12-26T03:27:30.684Z,11.73
2018-12-26T03:30:17.178Z,14.00
2018-12-26T03:33:03.538Z,14.47
2018-12-26T03:35:50.065Z,13.03
2018-12-26T03:38:36.435Z,16.23
2018-12-26T03:41:03.575Z,12.83
2018-12-26T03:43:50.200Z,15.50
2018-12-26T03:46:58.098Z,13.57
2018-12-26T03:49:44.461Z,12.93
2018-12-26T03:52:52.315Z,13.80
2018-12-26T03:56:00.363Z,16.30
2018-12-26T03:58:27.163Z,12.27
2018-12-26T04:01:13.522Z,15.13
2018-12-26T04:03:59.964Z,14.10
2018-12-26T04:06:46.315Z,15.77
2018-12-26T04:09:32.725Z,14.17
2018-12-26T04:12:40.625Z,14.20
2018-12-26T04:17:40.050Z,14.27
2018-12-26T04:20:07.112Z,13.87
2018-12-26T04:23:14.936Z,14.37
2018-12-26T04:25:41.741Z,16.10
2018-12-26T04:28:28.154Z,18.67
2018-12-26T04:31:14.569Z,16.77
2018-12-26T04:34:01.240Z,16.13
2018-12-26T04:36:47.601Z,18.60
2018-12-26T04:39:14.502Z,18.67
2018-12-26T04:42:00.863Z,21.03
2018-12-26T04:47:00.806Z,20.13
2018-12-26T04:49:47.547Z,19.67
2018-12-26T04:52:33.895Z,20.57
2018-12-26T04:55:20.646Z,19.50
2018-12-26T04:58:07.164Z,20.87
2018-12-26T05:00:53.568Z,25.23
2018-12-26T05:03:20.200Z,22.00
2018-12-26T05:09:26.007Z,23.37
2018-12-26T05:11:53.023Z,25.87
2018-12-26T05:14:39.506Z,25.47
2018-12-26T05:17:25.874Z,25.23
2018-12-26T05:20:12.600Z,25.30
2018-12-26T05:22:59.269Z,24.97
2018-12-26T05:25:26.070Z,22.70
2018-12-26T05:27:52.797Z,24.40
2018-12-26T05:30:19.832Z,23.63
2018-12-26T05:33:06.381Z,20.83
2018-12-26T05:35:52.783Z,23.10
2018-12-26T05:41:11.590Z,22.17
2018-12-26T05:43:58.092Z,23.60
2018-12-26T05:46:24.723Z,24.90
2018-12-26T05:49:11.477Z,24.03
2018-12-26T05:51:57.851Z,24.80
2018-12-26T05:54:44.270Z,26.10
2018-12-26T05:57:30.762Z,26.03
2018-12-26T06:00:17.478Z,25.43
2018-12-26T06:03:03.838Z,27.50
2018-12-26T06:05:50.269Z,23.70
2018-12-26T06:08:36.672Z,26.60
2018-12-26T06:13:55.703Z,23.07
2018-12-26T06:16:42.111Z,26.30
2018-12-26T06:19:28.753Z,26.20
2018-12-26T06:22:15.239Z,26.13
2018-12-26T06:24:42.255Z,31.97
2018-12-26T06:27:28.935Z,31.83
2018-12-26T06:30:08.900Z,27.60
2018-12-26T06:35:08.920Z,26.13
2018-12-26T06:37:55.368Z,33.27
2018-12-26T06:40:41.993Z,25.17
2018-12-26T06:46:01.771Z,26.63
2018-12-26T06:48:28.481Z,25.73
2018-12-26T06:50:55.106Z,28.07
2018-12-26T06:53:22.006Z,29.67
2018-12-26T06:56:08.414Z,26.60
2018-12-26T06:58:55.119Z,29.90
2018-12-26T07:04:14.213Z,26.00
2018-12-26T07:07:00.893Z,28.40
2018-12-26T07:09:27.522Z,27.00
2018-12-26T07:12:14.020Z,24.63
2018-12-26T07:15:00.364Z,28.10
2018-12-26T07:20:19.490Z,28.07
2018-12-26T07:22:46.229Z,24.63
2018-12-26T07:25:12.842Z,26.60
2018-12-26T07:28:20.692Z,25.23
2018-12-26T07:30:47.976Z,25.67
2018-12-26T07:33:34.302Z,25.30
2018-12-26T07:36:00.934Z,24.53
2018-12-26T07:38:47.687Z,24.70
2018-12-26T07:41:34.364Z,25.23
2018-12-26T07:44:01.429Z,23.93
2018-12-26T07:46:28.373Z,24.40
2018-12-26T07:49:14.787Z,25.40
2018-12-26T07:52:01.140Z,26.67
2018-12-26T07:57:20.244Z,27.83
2018-12-26T07:59:47.355Z,28.07
2018-12-26T08:02:14.141Z,24.70
2018-12-26T08:04:41.011Z,26.00
2018-12-26T08:07:27.486Z,26.20
2018-12-26T08:10:14.027Z,24.83
2018-12-26T08:12:40.743Z,27.73
2018-12-26T08:15:27.203Z,26.27
2018-12-26T08:18:13.700Z,28.27
2018-12-26T08:21:00.073Z,25.93
2018-12-26T08:23:26.766Z,29.70
2018-12-26T08:26:13.143Z,30.83
2018-12-26T08:31:12.945Z,28.77
2018-12-26T08:33:59.387Z,29.03
2018-12-26T08:36:26.410Z,32.73
2018-12-26T08:39:12.812Z,31.03
2018-12-26T08:41:59.204Z,28.03
2018-12-26T08:44:46.056Z,32.53
2018-12-26T08:47:32.318Z,31.13
2018-12-26T08:49:59.319Z,35.90
2018-12-26T08:52:26.255Z,34.70
2018-12-26T08:54:53.265Z,36.47
2018-12-26T08:58:01.212Z,34.83
2018-12-26T09:00:47.561Z,36.83
2018-12-26T09:03:33.977Z,32.00
2018-12-26T09:06:00.616Z,37.53
2018-12-26T09:08:27.242Z,33.70
2018-12-26T09:13:27.479Z,34.50
2018-12-26T09:16:13.965Z,37.77
2018-12-26T09:18:40.598Z,35.30
2018-12-26T09:21:07.234Z,36.30
2018-12-26T09:23:53.862Z,33.47
2018-12-26T09:26:40.235Z,36.43
2018-12-26T09:31:39.744Z,33.73
2018-12-26T09:34:26.495Z,35.37
2018-12-26T09:36:53.120Z,33.33
2018-12-26T09:39:39.846Z,31.47
2018-12-26T09:42:26.195Z,37.80
2018-12-26T09:47:25.566Z,33.13
2018-12-26T09:49:52.307Z,29.77
2018-12-26T09:52:19.405Z,32.53
2018-12-26T09:54:46.434Z,28.90
2018-12-26T09:57:32.836Z,30.77
2018-12-26T09:59:59.671Z,26.17
2018-12-26T10:02:46.164Z,23.70
2018-12-26T10:05:13.126Z,23.47
2018-12-26T10:07:39.758Z,20.73
2018-12-26T10:10:26.543Z,20.70
2018-12-26T10:12:53.172Z,18.67
2018-12-26T10:15:19.804Z,19.53
2018-12-26T10:18:06.246Z,18.37
2018-12-26T10:20:32.878Z,15.90
2018-12-26T10:23:19.411Z,17.20
2018-12-26T10:26:05.775Z,17.33
2018-12-26T10:28:32.470Z,16.10
2018-12-26T10:31:18.841Z,17.67
2018-12-26T10:33:46.076Z,15.10
2018-12-26T10:36:32.427Z,16.47
2018-12-26T10:39:18.925Z,16.70
2018-12-26T10:41:46.038Z,16.63
2018-12-26T10:44:33.185Z,17.57
2018-12-26T10:47:00.205Z,18.13
2018-12-26T10:49:27.311Z,18.63
2018-12-26T10:51:54.295Z,18.70
2018-12-26T10:54:21.243Z,18.37
2018-12-26T10:57:07.996Z,18.93
2018-12-26T10:59:54.651Z,19.13
2018-12-26T11:02:21.468Z,18.97
2018-12-26T11:04:48.706Z,18.77
2018-12-26T11:07:15.586Z,18.43
2018-12-26T11:09:42.396Z,19.17
2018-12-26T11:12:09.027Z,19.40
2018-12-26T11:17:22.931Z,21.00
2018-12-26T11:19:49.714Z,19.20
2018-12-26T11:22:36.217Z,23.70
2018-12-26T11:25:03.468Z,18.23
2018-12-26T11:27:49.944Z,21.27
2018-12-26T11:30:36.574Z,20.63
2018-12-26T11:33:23.016Z,22.83
2018-12-26T11:35:49.707Z,19.70
2018-12-26T11:38:16.440Z,21.53
2018-12-26T11:40:43.148Z,20.97
2018-12-26T11:43:09.890Z,20.40
2018-12-26T11:45:56.314Z,22.10
2018-12-26T11:48:42.666Z,20.90
2018-12-26T11:54:01.858Z,19.83
2018-12-26T11:59:01.266Z,19.17
2018-12-26T12:01:48.471Z,20.20
2018-12-26T12:04:15.188Z,19.50
2018-12-26T12:07:01.956Z,18.93
2018-12-26T12:09:29.020Z,20.17
2018-12-26T12:11:55.660Z,20.73
2018-12-26T12:15:03.533Z,23.57
2018-12-26T12:17:30.268Z,22.47
2018-12-26T12:19:57.357Z,22.27
2018-12-26T12:22:43.819Z,25.37
2018-12-26T12:25:10.552Z,21.57
2018-12-26T12:27:37.537Z,23.10
2018-12-26T12:32:37.762Z,24.47
2018-12-26T12:35:05.482Z,26.43
2018-12-26T12:37:45.682Z,27.20
2018-12-26T12:40:12.546Z,29.47
2018-12-26T12:42:39.191Z,26.57
2018-12-26T12:45:06.314Z,27.97
2018-12-26T12:47:52.565Z,30.57
2018-12-26T12:50:19.471Z,30.17
2018-12-26T12:53:05.814Z,32.13
2018-12-26T12:58:05.671Z,34.83
2018-12-26T13:00:32.400Z,37.40
2018-12-26T13:05:32.061Z,35.23
2018-12-26T13:08:18.570Z,37.97
2018-12-26T13:10:45.304Z,34.60
2018-12-26T13:13:12.041Z,40.03
2018-12-26T13:16:00.355Z,40.30
2018-12-26T13:18:46.719Z,41.60
2018-12-26T13:21:13.732Z,47.57
2018-12-26T13:24:00.096Z,48.77
2018-12-26T13:26:46.560Z,44.57
2018-12-26T13:29:33.299Z,41.10
2018-12-26T13:34:33.269Z,50.20
2018-12-26T13:36:59.908Z,47.33
2018-12-26T13:39:46.417Z,44.77
2018-12-26T13:42:32.773Z,48.03
2018-12-26T13:44:59.761Z,47.30
2018-12-26T13:47:26.428Z,43.13
2018-12-26T13:50:12.859Z,48.00
2018-12-26T13:55:47.540Z,42.17
2018-12-26T13:58:33.904Z,45.50
2018-12-26T14:03:33.680Z,45.20
2018-12-26T14:06:20.296Z,45.00
2018-12-26T14:09:06.658Z,47.10
2018-12-26T14:11:53.376Z,46.33
2018-12-26T14:14:20.006Z,46.47
2018-12-26T14:17:06.883Z,43.53
2018-12-26T14:19:33.804Z,42.83
2018-12-26T14:22:00.662Z,39.73
2018-12-26T14:24:27.476Z,45.80
2018-12-26T14:27:14.149Z,45.43
2018-12-26T14:29:53.863Z,44.30
2018-12-26T14:32:40.522Z,47.43
2018-12-26T14:35:27.082Z,40.03
2018-12-26T14:38:13.566Z,43.10
2018-12-26T14:40:52.909Z,42.57
2018-12-26T14:43:39.584Z,42.60
2018-12-26T14:46:06.382Z,44.00
2018-12-26T14:48:52.735Z,42.73
2018-12-26T14:51:39.143Z,42.23
2018-12-26T14:54:05.877Z,38.87
2018-12-26T14:56:52.358Z,35.87
2018-12-26T14:59:38.995Z,39.70
2018-12-26T15:04:38.392Z,35.30
2018-12-26T15:07:05.138Z,37.77
2018-12-26T15:09:51.904Z,34.57
2018-12-26T15:12:38.432Z,35.00
2018-12-26T15:15:25.374Z,36.70
2018-12-26T15:18:11.739Z,36.53
2018-12-26T15:20:58.180Z,33.33
2018-12-26T15:23:24.835Z,32.23
2018-12-26T15:26:11.372Z,37.53
2018-12-26T15:28:38.127Z,35.57
2018-12-26T15:31:24.720Z,31.33
2018-12-26T15:33:51.353Z,38.33
2018-12-26T15:36:18.529Z,36.10
2018-12-26T15:38:45.687Z,36.83
2018-12-26T15:41:12.522Z,36.20
2018-12-26T15:43:59.102Z,34.60
2018-12-26T15:46:45.997Z,33.67
2018-12-26T15:49:32.425Z,38.77
2018-12-26T15:52:40.197Z,33.40
2018-12-26T15:55:26.614Z,33.57
2018-12-26T15:58:13.012Z,35.70
2018-12-26T16:00:59.397Z,35.80
2018-12-26T16:03:46.030Z,34.50
2018-12-26T16:06:32.527Z,35.37
2018-12-26T16:09:18.888Z,39.40
2018-12-26T16:12:05.433Z,41.43
2018-12-26T16:14:52.062Z,35.03
2018-12-26T16:17:38.670Z,40.57
2018-12-26T16:23:34.902Z,46.93
2018-12-26T16:26:42.711Z,48.03
2018-12-26T16:29:09.502Z,42.40
2018-12-26T16:31:55.913Z,51.10
2018-12-26T16:34:42.483Z,47.87
2018-12-26T16:37:28.836Z,43.70
2018-12-26T16:42:29.340Z,47.73
2018-12-26T16:44:56.371Z,48.00
2018-12-26T16:47:42.816Z,47.07
2018-12-26T16:50:50.627Z,52.63
2018-12-26T16:55:50.721Z,50.63
2018-12-26T16:58:25.543Z,51.50
2018-12-26T17:00:55.127Z,51.00
2018-12-26T17:03:21.205Z,54.30
2018-12-26T17:06:07.826Z,48.90
2018-12-26T17:08:54.361Z,54.10
2018-12-26T17:11:41.336Z,51.83
2018-12-26T17:14:28.045Z,49.87
2018-12-26T17:16:55.368Z,50.73
2018-12-26T17:19:41.782Z,53.47
2018-12-26T17:22:08.932Z,52.53
2018-12-26T17:24:55.563Z,53.10
2018-12-26T17:27:22.526Z,50.43
2018-12-26T17:29:49.168Z,48.67
2018-12-26T17:32:35.711Z,45.10
2018-12-26T17:35:02.936Z,51.70
2018-12-26T17:37:49.680Z,53.23
2018-12-26T17:40:36.040Z,51.10
2018-12-26T17:43:15.591Z,48.37
2018-12-26T17:45:42.357Z,49.90
2018-12-26T17:48:29.131Z,48.00
2018-12-26T17:51:16.302Z,53.67
2018-12-26T17:54:22.505Z,49.70
2018-12-26T17:57:28.648Z,56.30
2018-12-26T18:00:18.831Z,49.80
2018-12-26T18:02:46.682Z,55.20
2018-12-26T18:05:33.506Z,53.40
2018-12-26T18:08:20.008Z,53.23
2018-12-26T18:11:06.562Z,56.07
2018-12-26T18:14:15.187Z,55.13
2018-12-26T18:17:01.734Z,57.87
2018-12-26T18:19:48.195Z,68.30
2018-12-26T18:22:34.784Z,73.03
2018-12-26T18:25:21.202Z,82.83
2018-12-26T18:28:08.128Z,80.27
2018-12-26T18:30:54.931Z,80.93
2018-12-26T18:33:41.243Z,87.57
2018-12-26T18:36:08.091Z,96.07
2018-12-26T18:38:54.807Z,104.73
2018-12-26T18:41:41.182Z,120.50
2018-12-26T18:47:00.929Z,110.27
2018-12-26T18:52:00.450Z,96.70
2018-12-26T18:54:28.180Z,153.73
2018-12-26T18:57:14.648Z,114.13
2018-12-26T18:59:41.519Z,105.10
2018-12-26T19:02:27.924Z,109.40
2018-12-26T19:05:14.278Z,110.07
2018-12-26T19:07:41.583Z,148.90
2018-12-26T19:10:28.889Z,139.73
2018-12-26T19:13:15.371Z,143.50
2018-12-26T19:16:01.999Z,164.13
2018-12-26T19:18:48.710Z,133.97
2018-12-26T19:21:35.336Z,124.73
2018-12-26T19:24:02.311Z,143.70
2018-12-26T19:26:28.948Z,139.80
2018-12-26T19:29:15.376Z,163.20
2018-12-26T19:32:02.312Z,171.43
2018-12-26T19:34:29.125Z,163.70
2018-12-26T19:36:55.768Z,164.27
2018-12-26T19:39:42.195Z,139.53
2018-12-26T19:42:37.184Z,179.83
2018-12-26T19:44:57.330Z,163.10
2018-12-26T19:47:24.074Z,133.23
2018-12-26T19:50:10.557Z,143.53
2018-12-26T19:52:57.215Z,172.07
2018-12-26T19:55:43.645Z,148.60
2018-12-26T19:58:10.382Z,165.07
2018-12-26T20:00:56.820Z,138.53
2018-12-26T20:03:23.459Z,161.77
2018-12-26T20:06:09.883Z,135.37
2018-12-26T20:08:36.617Z,143.27
2018-12-26T20:11:23.277Z,141.87
2018-12-26T20:14:09.540Z,130.57
2018-12-26T20:16:56.202Z,119.43
2018-12-26T20:19:42.572Z,133.77
2018-12-26T20:22:29.229Z,144.53
2018-12-26T20:25:15.634Z,137.27
2018-12-26T20:28:02.088Z,122.77
2018-12-26T20:30:48.451Z,139.90
2018-12-26T20:33:35.360Z,131.17
2018-12-26T20:36:22.004Z,124.00
2018-12-26T20:39:08.998Z,129.73
2018-12-26T20:41:38.118Z,131.23
2018-12-26T20:47:00.379Z,130.40
2018-12-26T20:49:47.015Z,122.97
2018-12-26T20:52:33.647Z,128.23
2018-12-26T20:55:00.740Z,138.37
2018-12-26T20:57:47.180Z,114.97
2018-12-26T21:00:33.532Z,133.30
2018-12-26T21:03:20.269Z,127.80
2018-12-26T21:05:49.275Z,120.90
2018-12-26T21:08:35.963Z,123.07
2018-12-26T21:11:22.385Z,121.97
2018-12-26T21:14:30.959Z,117.70
2018-12-26T21:16:58.377Z,116.23
2018-12-26T21:19:25.111Z,132.87
2018-12-26T21:22:11.624Z,131.20
2018-12-26T21:24:58.015Z,108.03
2018-12-26T21:27:24.856Z,125.77
2018-12-26T21:30:12.016Z,129.10
2018-12-26T21:32:38.999Z,113.53
2018-12-26T21:35:25.379Z,115.90
2018-12-26T21:38:28.354Z,115.50
2018-12-26T21:41:15.110Z,130.60
2018-12-26T21:44:01.730Z,120.90
2018-12-26T21:46:48.088Z,110.43
2018-12-26T21:49:34.574Z,110.10
2018-12-26T21:52:21.163Z,118.73
2018-12-26T21:55:07.601Z,111.97
2018-12-26T21:57:53.970Z,117.10
2018-12-26T22:00:40.746Z,122.07
2018-12-26T22:03:27.207Z,109.47
2018-12-26T22:06:13.694Z,96.90
2018-12-26T22:09:00.078Z,100.00
2018-12-26T22:11:46.532Z,118.07
2018-12-26T22:14:13.482Z,111.80
2018-12-26T22:16:59.966Z,103.60
2018-12-26T22:19:46.616Z,116.20
2018-12-26T22:22:33.355Z,100.50
2018-12-26T22:25:19.987Z,102.40
2018-12-26T22:28:06.372Z,111.37
2018-12-26T22:30:52.727Z,88.20
2018-12-26T22:35:52.908Z,97.70
2018-12-26T22:38:39.336Z,98.57
2018-12-26T22:41:26.030Z,92.97
2018-12-26T22:44:12.479Z,97.63
2018-12-26T22:46:58.843Z,97.57
2018-12-26T22:49:45.351Z,83.40
2018-12-26T22:52:12.116Z,91.10
2018-12-26T22:54:58.550Z,78.70
2018-12-26T22:57:45.170Z,85.70
2018-12-26T23:00:53.265Z,84.67
2018-12-26T23:03:20.001Z,65.10
2018-12-26T23:06:06.619Z,75.10
2018-12-26T23:08:52.987Z,67.93
2018-12-26T23:11:19.696Z,67.87
2018-12-26T23:14:06.373Z,67.03
2018-12-26T23:19:05.918Z,72.33
2018-12-26T23:21:52.389Z,73.43
2018-12-26T23:24:19.044Z,71.50
2018-12-26T23:27:05.486Z,74.13
2018-12-26T23:29:32.127Z,68.93
2018-12-26T23:32:18.615Z,76.97
2018-12-26T23:34:45.908Z,74.20
2018-12-26T23:37:12.658Z,73.70
2018-12-26T23:39:59.144Z,72.17
2018-12-26T23:42:25.846Z,73.00
2018-12-26T23:45:33.683Z,70.10
2018-12-26T23:48:00.444Z,70.47
2018-12-26T23:50:46.858Z,76.13
2018-12-26T23:53:13.500Z,76.17
2018-12-26T23:55:42.411Z,82.37
2018-12-26T23:58:09.432Z,69.37
